sensor_id;sensor_type;location;lat;lon;timestamp;pressure;altitude;pressure_sealevel;temperature;humidity
75936;BME280;64614;32.062;34.834;2023-07-22T00:00:15;100459.34;;;29.10;57.91
75936;BME280;64614;32.062;34.834;2023-07-22T00:02:42;100455.41;;;29.11;58.13
75936;BME280;64614;32.062;34.834;2023-07-22T00:05:08;100454.63;;;29.11;58.27
75936;BME280;64614;32.062;34.834;2023-07-22T00:07:35;100453.00;;;29.10;58.08
75936;BME280;64614;32.062;34.834;2023-07-22T00:10:01;100453.00;;;29.10;58.22
75936;BME280;64614;32.062;34.834;2023-07-22T00:12:27;100448.66;;;29.08;58.07
75936;BME280;64614;32.062;34.834;2023-07-22T00:14:53;100438.75;;;29.07;57.99
75936;BME280;64614;32.062;34.834;2023-07-22T00:17:19;100450.63;;;29.08;57.95
75936;BME280;64614;32.062;34.834;2023-07-22T00:19:47;100451.41;;;29.08;57.89
75936;BME280;64614;32.062;34.834;2023-07-22T00:22:14;100451.41;;;29.08;57.79
75936;BME280;64614;32.062;34.834;2023-07-22T00:24:43;100454.16;;;29.08;57.96
75936;BME280;64614;32.062;34.834;2023-07-22T00:27:08;100454.16;;;29.08;57.74
75936;BME280;64614;32.062;34.834;2023-07-22T00:29:35;100449.81;;;29.07;57.97
75936;BME280;64614;32.062;34.834;2023-07-22T00:32:00;100447.03;;;29.07;57.65
75936;BME280;64614;32.062;34.834;2023-07-22T00:34:26;100451.78;;;29.07;57.75
75936;BME280;64614;32.062;34.834;2023-07-22T00:36:52;100447.03;;;29.07;57.84
75936;BME280;64614;32.062;34.834;2023-07-22T00:39:17;100454.16;;;29.08;58.11
75936;BME280;64614;32.062;34.834;2023-07-22T00:41:43;100443.13;;;29.08;58.05
75936;BME280;64614;32.062;34.834;2023-07-22T00:44:12;100448.66;;;29.08;58.11
75936;BME280;64614;32.062;34.834;2023-07-22T00:46:38;100448.19;;;29.06;58.22
75936;BME280;64614;32.062;34.834;2023-07-22T00:49:06;100437.13;;;29.06;57.97
75936;BME280;64614;32.062;34.834;2023-07-22T00:51:32;100447.41;;;29.06;58.04
75936;BME280;64614;32.062;34.834;2023-07-22T00:53:58;100446.59;;;29.05;57.95
75936;BME280;64614;32.062;34.834;2023-07-22T00:56:24;100448.19;;;29.06;58.54
75936;BME280;64614;32.062;34.834;2023-07-22T00:58:51;100449.81;;;29.07;58.13
75936;BME280;64614;32.062;34.834;2023-07-22T01:01:17;100446.59;;;29.05;58.07
75936;BME280;64614;32.062;34.834;2023-07-22T01:03:42;100454.88;;;29.05;58.22
75936;BME280;64614;32.062;34.834;2023-07-22T01:06:09;100453.31;;;29.04;58.02
75936;BME280;64614;32.062;34.834;2023-07-22T01:08:35;100453.31;;;29.04;58.10
75936;BME280;64614;32.062;34.834;2023-07-22T01:11:01;100456.06;;;29.04;57.92
75936;BME280;64614;32.062;34.834;2023-07-22T01:13:26;100447.78;;;29.04;57.96
75936;BME280;64614;32.062;34.834;2023-07-22T01:15:52;100455.25;;;29.04;58.10
75936;BME280;64614;32.062;34.834;2023-07-22T01:18:19;100458.84;;;29.04;58.21
75936;BME280;64614;32.062;34.834;2023-07-22T01:20:45;100458.41;;;29.02;58.09
75936;BME280;64614;32.062;34.834;2023-07-22T01:23:11;100453.22;;;29.01;57.83
75936;BME280;64614;32.062;34.834;2023-07-22T01:25:37;100451.97;;;28.98;58.13
75936;BME280;64614;32.062;34.834;2023-07-22T01:28:03;100455.47;;;28.95;58.28
75936;BME280;64614;32.062;34.834;2023-07-22T01:30:29;100447.53;;;28.93;58.21
75936;BME280;64614;32.062;34.834;2023-07-22T01:32:55;100457.78;;;28.93;58.21
75936;BME280;64614;32.062;34.834;2023-07-22T01:35:20;100461.34;;;28.93;58.38
75936;BME280;64614;32.062;34.834;2023-07-22T01:37:46;100453.94;;;28.98;58.23
75936;BME280;64614;32.062;34.834;2023-07-22T01:40:12;100461.88;;;28.99;58.20
75936;BME280;64614;32.062;34.834;2023-07-22T01:42:44;100456.72;;;28.98;58.15
75936;BME280;64614;32.062;34.834;2023-07-22T01:45:10;100469.00;;;29.00;58.25
75936;BME280;64614;32.062;34.834;2023-07-22T01:47:36;100467.41;;;28.99;58.10
75936;BME280;64614;32.062;34.834;2023-07-22T01:50:03;100469.38;;;28.99;58.29
75936;BME280;64614;32.062;34.834;2023-07-22T01:52:29;100472.56;;;29.01;58.10
75936;BME280;64614;32.062;34.834;2023-07-22T01:54:55;100473.38;;;29.01;58.20
75936;BME280;64614;32.062;34.834;2023-07-22T01:57:21;100465.44;;;29.00;58.29
75936;BME280;64614;32.062;34.834;2023-07-22T01:59:46;100473.38;;;29.01;58.19
75936;BME280;64614;32.062;34.834;2023-07-22T02:02:13;100473.00;;;29.03;57.91
75936;BME280;64614;32.062;34.834;2023-07-22T02:04:38;100474.63;;;29.04;58.26
75936;BME280;64614;32.062;34.834;2023-07-22T02:07:04;100477.75;;;29.02;58.29
75936;BME280;64614;32.062;34.834;2023-07-22T02:09:32;100482.81;;;29.00;58.16
75936;BME280;64614;32.062;34.834;2023-07-22T02:11:58;100475.31;;;29.01;58.11
75936;BME280;64614;32.062;34.834;2023-07-22T02:14:24;100481.22;;;28.99;57.85
75936;BME280;64614;32.062;34.834;2023-07-22T02:16:49;100474.91;;;28.99;58.00
75936;BME280;64614;32.062;34.834;2023-07-22T02:19:15;100482.03;;;29.00;58.47
75936;BME280;64614;32.062;34.834;2023-07-22T02:21:41;100484.81;;;29.00;58.09
75936;BME280;64614;32.062;34.834;2023-07-22T02:24:08;100478.91;;;29.01;58.15
75936;BME280;64614;32.062;34.834;2023-07-22T02:26:33;100477.75;;;29.02;57.96
75936;BME280;64614;32.062;34.834;2023-07-22T02:28:59;100474.97;;;29.02;58.10
75936;BME280;64614;32.062;34.834;2023-07-22T02:31:25;100471.78;;;29.00;58.16
75936;BME280;64614;32.062;34.834;2023-07-22T02:33:50;100477.66;;;28.99;58.28
75936;BME280;64614;32.062;34.834;2023-07-22T02:36:16;100485.97;;;28.99;57.80
75936;BME280;64614;32.062;34.834;2023-07-22T02:38:42;100481.59;;;28.98;58.14
75936;BME280;64614;32.062;34.834;2023-07-22T02:41:07;100494.59;;;28.97;57.83
75936;BME280;64614;32.062;34.834;2023-07-22T02:43:34;100491.41;;;28.95;57.82
75936;BME280;64614;32.062;34.834;2023-07-22T02:46:04;100500.03;;;28.93;57.83
75936;BME280;64614;32.062;34.834;2023-07-22T02:48:33;100490.97;;;28.93;58.03
75936;BME280;64614;32.062;34.834;2023-07-22T02:51:06;100492.13;;;28.92;58.19
75936;BME280;64614;32.062;34.834;2023-07-22T02:53:32;100495.25;;;28.90;57.91
75936;BME280;64614;32.062;34.834;2023-07-22T02:55:59;100494.44;;;28.90;57.80
75936;BME280;64614;32.062;34.834;2023-07-22T02:58:25;100488.13;;;28.89;57.98
75936;BME280;64614;32.062;34.834;2023-07-22T03:00:51;100485.69;;;28.88;57.78
75936;BME280;64614;32.062;34.834;2023-07-22T03:03:17;100499.19;;;28.89;57.94
75936;BME280;64614;32.062;34.834;2023-07-22T03:05:44;100494.00;;;28.88;57.82
75936;BME280;64614;32.062;34.834;2023-07-22T03:08:10;100505.41;;;28.86;57.89
75936;BME280;64614;32.062;34.834;2023-07-22T03:10:36;100493.56;;;28.86;58.13
75936;BME280;64614;32.062;34.834;2023-07-22T03:13:02;100495.06;;;28.83;57.91
75936;BME280;64614;32.062;34.834;2023-07-22T03:15:29;100499.81;;;28.83;58.25
75936;BME280;64614;32.062;34.834;2023-07-22T03:17:55;100493.50;;;28.82;58.05
75936;BME280;64614;32.062;34.834;2023-07-22T03:20:22;100502.94;;;28.81;57.83
75936;BME280;64614;32.062;34.834;2023-07-22T03:22:49;100510.41;;;28.81;58.03
75936;BME280;64614;32.062;34.834;2023-07-22T03:25:15;100509.63;;;28.80;58.14
75936;BME280;64614;32.062;34.834;2023-07-22T03:27:44;100509.97;;;28.79;57.82
75936;BME280;64614;32.062;34.834;2023-07-22T03:30:13;100513.53;;;28.79;57.80
75936;BME280;64614;32.062;34.834;2023-07-22T03:32:45;100517.91;;;28.80;58.24
75936;BME280;64614;32.062;34.834;2023-07-22T03:35:13;100509.16;;;28.78;58.34
75936;BME280;64614;32.062;34.834;2023-07-22T03:37:39;100517.09;;;28.80;58.01
75936;BME280;64614;32.062;34.834;2023-07-22T03:40:06;100510.78;;;28.79;57.96
75936;BME280;64614;32.062;34.834;2023-07-22T03:42:34;100515.84;;;28.77;58.12
75936;BME280;64614;32.062;34.834;2023-07-22T03:45:00;100518.53;;;28.73;57.96
75936;BME280;64614;32.062;34.834;2023-07-22T03:47:26;100512.44;;;28.68;57.75
75936;BME280;64614;32.062;34.834;2023-07-22T03:49:52;100513.50;;;28.63;57.60
75936;BME280;64614;32.062;34.834;2023-07-22T03:52:17;100514.25;;;28.60;57.85
75936;BME280;64614;32.062;34.834;2023-07-22T03:54:44;100519.66;;;28.56;57.69
75936;BME280;64614;32.062;34.834;2023-07-22T03:57:11;100532.22;;;28.54;57.75
75936;BME280;64614;32.062;34.834;2023-07-22T03:59:39;100536.59;;;28.55;57.33
75936;BME280;64614;32.062;34.834;2023-07-22T04:02:05;100546.03;;;28.54;57.76
75936;BME280;64614;32.062;34.834;2023-07-22T04:04:31;100542.41;;;28.50;57.36
75936;BME280;64614;32.062;34.834;2023-07-22T04:06:56;100539.19;;;28.48;57.30
75936;BME280;64614;32.062;34.834;2023-07-22T04:09:22;100538.41;;;28.47;57.65
75936;BME280;64614;32.062;34.834;2023-07-22T04:11:48;100540.72;;;28.45;57.49
75936;BME280;64614;32.062;34.834;2023-07-22T04:14:13;100540.25;;;28.43;57.51
75936;BME280;64614;32.062;34.834;2023-07-22T04:16:39;100543.38;;;28.41;57.12
75936;BME280;64614;32.062;34.834;2023-07-22T04:19:05;100539.00;;;28.40;57.03
75936;BME280;64614;32.062;34.834;2023-07-22T04:21:31;100531.88;;;28.39;57.38
75936;BME280;64614;32.062;34.834;2023-07-22T04:23:57;100537.75;;;28.38;57.35
75936;BME280;64614;32.062;34.834;2023-07-22T04:26:22;100539.72;;;28.37;57.24
75936;BME280;64614;32.062;34.834;2023-07-22T04:28:48;100533.72;;;28.35;56.89
75936;BME280;64614;32.062;34.834;2023-07-22T04:31:16;100536.84;;;28.34;57.28
75936;BME280;64614;32.062;34.834;2023-07-22T04:33:42;100539.16;;;28.32;57.21
75936;BME280;64614;32.062;34.834;2023-07-22T04:36:08;100542.28;;;28.30;57.02
75936;BME280;64614;32.062;34.834;2023-07-22T04:38:34;100539.53;;;28.30;57.42
75936;BME280;64614;32.062;34.834;2023-07-22T04:41:02;100544.25;;;28.29;56.48
75936;BME280;64614;32.062;34.834;2023-07-22T04:43:29;100547.34;;;28.28;57.01
75936;BME280;64614;32.062;34.834;2023-07-22T04:45:54;100546.19;;;28.29;56.61
75936;BME280;64614;32.062;34.834;2023-07-22T04:48:21;100541.03;;;28.27;56.99
75936;BME280;64614;32.062;34.834;2023-07-22T04:50:50;100548.50;;;28.27;56.96
75936;BME280;64614;32.062;34.834;2023-07-22T04:53:21;100544.97;;;28.26;56.67
75936;BME280;64614;32.062;34.834;2023-07-22T04:55:47;100545.75;;;28.27;56.27
75936;BME280;64614;32.062;34.834;2023-07-22T04:58:13;100543.00;;;28.27;56.56
75936;BME280;64614;32.062;34.834;2023-07-22T05:00:38;100545.41;;;28.28;56.56
75936;BME280;64614;32.062;34.834;2023-07-22T05:03:05;100543.00;;;28.27;56.49
75936;BME280;64614;32.062;34.834;2023-07-22T05:05:31;100534.38;;;28.28;56.60
75936;BME280;64614;32.062;34.834;2023-07-22T05:07:57;100545.06;;;28.30;56.97
75936;BME280;64614;32.062;34.834;2023-07-22T05:10:23;100541.13;;;28.31;56.20
75936;BME280;64614;32.062;34.834;2023-07-22T05:12:48;100543.91;;;28.31;56.56
75936;BME280;64614;32.062;34.834;2023-07-22T05:15:14;100542.75;;;28.32;56.41
75936;BME280;64614;32.062;34.834;2023-07-22T05:17:40;100550.66;;;28.34;56.44
75936;BME280;64614;32.062;34.834;2023-07-22T05:20:07;100547.13;;;28.33;56.58
75936;BME280;64614;32.062;34.834;2023-07-22T05:22:35;100546.84;;;28.38;56.27
75936;BME280;64614;32.062;34.834;2023-07-22T05:25:01;100553.06;;;28.35;56.53
75936;BME280;64614;32.062;34.834;2023-07-22T05:27:26;100549.16;;;28.36;56.53
75936;BME280;64614;32.062;34.834;2023-07-22T05:29:52;100548.81;;;28.38;56.05
75936;BME280;64614;32.062;34.834;2023-07-22T05:32:18;100554.34;;;28.38;56.16
75936;BME280;64614;32.062;34.834;2023-07-22T05:34:43;100538.56;;;28.38;56.07
75936;BME280;64614;32.062;34.834;2023-07-22T05:37:09;100542.91;;;28.39;56.34
75936;BME280;64614;32.062;34.834;2023-07-22T05:39:34;100548.44;;;28.39;56.36
75936;BME280;64614;32.062;34.834;2023-07-22T05:42:00;100539.00;;;28.40;56.40
75936;BME280;64614;32.062;34.834;2023-07-22T05:44:26;100543.38;;;28.41;56.32
75936;BME280;64614;32.062;34.834;2023-07-22T05:46:51;100533.94;;;28.42;56.41
75936;BME280;64614;32.062;34.834;2023-07-22T05:49:17;100544.63;;;28.44;56.28
75936;BME280;64614;32.062;34.834;2023-07-22T05:51:43;100539.09;;;28.44;55.97
75936;BME280;64614;32.062;34.834;2023-07-22T05:54:08;100540.72;;;28.45;56.47
75936;BME280;64614;32.062;34.834;2023-07-22T05:56:34;100537.56;;;28.46;56.40
75936;BME280;64614;32.062;34.834;2023-07-22T05:59:00;100539.19;;;28.48;56.10
75936;BME280;64614;32.062;34.834;2023-07-22T06:01:25;100534.13;;;28.50;56.39
75936;BME280;64614;32.062;34.834;2023-07-22T06:03:51;100529.38;;;28.50;56.10
75936;BME280;64614;32.062;34.834;2023-07-22T06:06:17;100529.84;;;28.52;56.30
75936;BME280;64614;32.062;34.834;2023-07-22T06:08:43;100537.75;;;28.54;56.58
75936;BME280;64614;32.062;34.834;2023-07-22T06:11:08;100541.34;;;28.54;56.49
75936;BME280;64614;32.062;34.834;2023-07-22T06:13:34;100537.84;;;28.57;56.16
75936;BME280;64614;32.062;34.834;2023-07-22T06:16:00;100543.03;;;28.59;56.66
75936;BME280;64614;32.062;34.834;2023-07-22T06:18:26;100544.97;;;28.58;56.39
75936;BME280;64614;32.062;34.834;2023-07-22T06:20:51;100539.13;;;28.60;56.38
75936;BME280;64614;32.062;34.834;2023-07-22T06:23:17;100536.78;;;28.62;56.63
75936;BME280;64614;32.062;34.834;2023-07-22T06:25:43;100543.91;;;28.63;56.47
75936;BME280;64614;32.062;34.834;2023-07-22T06:28:09;100545.97;;;28.66;56.07
75936;BME280;64614;32.062;34.834;2023-07-22T06:30:34;100553.91;;;28.68;56.44
75936;BME280;64614;32.062;34.834;2023-07-22T06:33:00;100547.56;;;28.67;56.40
75936;BME280;64614;32.062;34.834;2023-07-22T06:35:26;100546.41;;;28.68;56.38
75936;BME280;64614;32.062;34.834;2023-07-22T06:37:52;100549.63;;;28.70;56.36
75936;BME280;64614;32.062;34.834;2023-07-22T06:40:17;100548.47;;;28.71;56.61
75936;BME280;64614;32.062;34.834;2023-07-22T06:42:43;100550.09;;;28.72;56.43
75936;BME280;64614;32.062;34.834;2023-07-22T06:45:09;100551.69;;;28.73;56.42
75936;BME280;64614;32.062;34.834;2023-07-22T06:47:35;100541.09;;;28.75;56.46
75936;BME280;64614;32.062;34.834;2023-07-22T06:50:02;100551.31;;;28.75;56.43
75936;BME280;64614;32.062;34.834;2023-07-22T06:52:30;100551.78;;;28.77;56.46
75936;BME280;64614;32.062;34.834;2023-07-22T06:54:56;100547.88;;;28.78;56.66
75936;BME280;64614;32.062;34.834;2023-07-22T06:57:22;100548.31;;;28.80;56.44
75936;BME280;64614;32.062;34.834;2023-07-22T06:59:48;100545.56;;;28.80;56.28
75936;BME280;64614;32.062;34.834;2023-07-22T07:02:16;100547.94;;;28.82;56.41
75936;BME280;64614;32.062;34.834;2023-07-22T07:04:41;100547.94;;;28.82;56.64
75936;BME280;64614;32.062;34.834;2023-07-22T07:07:07;100549.56;;;28.83;56.81
75936;BME280;64614;32.062;34.834;2023-07-22T07:09:35;100545.63;;;28.84;56.53
75936;BME280;64614;32.062;34.834;2023-07-22T07:12:00;100538.50;;;28.83;56.28
75936;BME280;64614;32.062;34.834;2023-07-22T07:14:26;100546.88;;;28.86;56.80
75936;BME280;64614;32.062;34.834;2023-07-22T07:16:52;100546.09;;;28.86;56.59
75936;BME280;64614;32.062;34.834;2023-07-22T07:19:17;100542.50;;;28.85;56.42
75936;BME280;64614;32.062;34.834;2023-07-22T07:21:43;100549.63;;;28.86;56.39
75936;BME280;64614;32.062;34.834;2023-07-22T07:24:09;100544.94;;;28.87;56.66
75936;BME280;64614;32.062;34.834;2023-07-22T07:26:34;100552.03;;;28.88;56.67
75936;BME280;64614;32.062;34.834;2023-07-22T07:29:00;100538.22;;;28.88;56.68
75936;BME280;64614;32.062;34.834;2023-07-22T07:31:26;100538.66;;;28.90;56.75
75936;BME280;64614;32.062;34.834;2023-07-22T07:33:52;100541.88;;;28.92;56.41
75936;BME280;64614;32.062;34.834;2023-07-22T07:36:18;100542.34;;;28.94;56.79
75936;BME280;64614;32.062;34.834;2023-07-22T07:38:44;100535.97;;;28.93;56.54
75936;BME280;64614;32.062;34.834;2023-07-22T07:41:10;100533.66;;;28.96;56.81
75936;BME280;64614;32.062;34.834;2023-07-22T07:43:40;100538.50;;;28.99;56.72
75936;BME280;64614;32.062;34.834;2023-07-22T07:46:32;100535.81;;;29.02;56.85
75936;BME280;64614;32.062;34.834;2023-07-22T07:48:58;100535.06;;;29.05;56.67
75936;BME280;64614;32.062;34.834;2023-07-22T07:51:28;100532.66;;;29.04;57.05
75936;BME280;64614;32.062;34.834;2023-07-22T07:53:56;100536.25;;;29.04;56.93
75936;BME280;64614;32.062;34.834;2023-07-22T07:56:22;100535.06;;;29.05;56.84
75936;BME280;64614;32.062;34.834;2023-07-22T07:58:49;100522.31;;;29.01;56.25
75936;BME280;64614;32.062;34.834;2023-07-22T08:01:15;100526.09;;;28.92;55.76
75936;BME280;64614;32.062;34.834;2023-07-22T08:03:41;100530.91;;;28.80;55.10
75936;BME280;64614;32.062;34.834;2023-07-22T08:06:08;100520.66;;;28.64;55.90
75936;BME280;64614;32.062;34.834;2023-07-22T08:08:34;100525.63;;;28.58;55.40
75936;BME280;64614;32.062;34.834;2023-07-22T08:11:06;100516.31;;;28.47;55.23
75936;BME280;64614;32.062;34.834;2023-07-22T08:13:33;100527.41;;;28.35;55.03
75936;BME280;64614;32.062;34.834;2023-07-22T08:16:01;100530.78;;;28.28;55.63
75936;BME280;64614;32.062;34.834;2023-07-22T08:18:26;100525.88;;;28.21;55.04
75936;BME280;64614;32.062;34.834;2023-07-22T08:20:53;100533.53;;;28.12;55.74
75936;BME280;64614;32.062;34.834;2023-07-22T08:23:22;100521.09;;;28.06;55.33
75936;BME280;64614;32.062;34.834;2023-07-22T08:25:47;100524.91;;;28.01;55.63
75936;BME280;64614;32.062;34.834;2023-07-22T08:28:14;100515.75;;;27.97;56.08
75936;BME280;64614;32.062;34.834;2023-07-22T08:30:39;100515.75;;;27.97;55.90
75936;BME280;64614;32.062;34.834;2023-07-22T08:33:09;100518.50;;;27.97;56.14
75936;BME280;64614;32.062;34.834;2023-07-22T08:35:37;100505.13;;;27.99;55.94
75936;BME280;64614;32.062;34.834;2023-07-22T08:38:03;100510.31;;;28.01;55.95
75936;BME280;64614;32.062;34.834;2023-07-22T08:40:36;100513.88;;;28.01;56.33
75936;BME280;64614;32.062;34.834;2023-07-22T08:43:03;100508.44;;;28.05;56.10
75936;BME280;64614;32.062;34.834;2023-07-22T08:45:31;100511.22;;;28.05;56.21
75936;BME280;64614;32.062;34.834;2023-07-22T08:48:04;100515.28;;;28.07;56.22
75936;BME280;64614;32.062;34.834;2023-07-22T08:50:46;100509.03;;;28.10;55.89
75936;BME280;64614;32.062;34.834;2023-07-22T08:53:15;100510.63;;;28.11;55.86
75936;BME280;64614;32.062;34.834;2023-07-22T08:55:41;100512.69;;;28.14;55.72
75936;BME280;64614;32.062;34.834;2023-07-22T08:58:11;100504.06;;;28.16;55.98
75936;BME280;64614;32.062;34.834;2023-07-22T09:00:39;100491.50;;;28.19;55.98
75936;BME280;64614;32.062;34.834;2023-07-22T09:03:05;100501.84;;;28.22;55.83
75936;BME280;64614;32.062;34.834;2023-07-22T09:05:33;100504.25;;;28.23;55.99
75936;BME280;64614;32.062;34.834;2023-07-22T09:08:01;100497.56;;;28.24;55.90
75936;BME280;64614;32.062;34.834;2023-07-22T09:10:27;100498.81;;;28.27;55.91
75936;BME280;64614;32.062;34.834;2023-07-22T09:12:54;100494.56;;;28.29;55.96
75936;BME280;64614;32.062;34.834;2023-07-22T09:15:20;100496.94;;;28.31;56.04
75936;BME280;64614;32.062;34.834;2023-07-22T09:17:46;100494.63;;;28.33;56.00
75936;BME280;64614;32.062;34.834;2023-07-22T09:20:13;100482.88;;;28.36;56.13
75936;BME280;64614;32.062;34.834;2023-07-22T09:22:43;100484.09;;;28.39;56.25
75936;BME280;64614;32.062;34.834;2023-07-22T09:27:51;100475.13;;;28.42;56.30
75936;BME280;64614;32.062;34.834;2023-07-22T09:30:28;100478.34;;;28.44;55.77
75936;BME280;64614;32.062;34.834;2023-07-22T09:32:59;100469.69;;;28.45;56.22
75936;BME280;64614;32.062;34.834;2023-07-22T09:35:28;100468.16;;;28.48;55.77
75936;BME280;64614;32.062;34.834;2023-07-22T09:37:58;100454.34;;;28.48;56.02
75936;BME280;64614;32.062;34.834;2023-07-22T09:40:25;100465.50;;;28.52;55.85
75936;BME280;64614;32.062;34.834;2023-07-22T09:42:55;100455.25;;;28.52;56.06
75936;BME280;64614;32.062;34.834;2023-07-22T09:45:23;100454.88;;;28.54;55.83
75936;BME280;64614;32.062;34.834;2023-07-22T09:47:51;100454.97;;;28.57;55.97
75936;BME280;64614;32.062;34.834;2023-07-22T09:50:23;100459.31;;;28.58;56.23
75936;BME280;64614;32.062;34.834;2023-07-22T09:52:54;100454.63;;;28.59;56.13
75936;BME280;64614;32.062;34.834;2023-07-22T09:55:27;100450.34;;;28.61;56.20
75936;BME280;64614;32.062;34.834;2023-07-22T09:57:58;100445.25;;;28.64;56.05
75936;BME280;64614;32.062;34.834;2023-07-22T10:00:28;100450.41;;;28.65;55.91
75936;BME280;64614;32.062;34.834;2023-07-22T10:02:56;100449.25;;;28.66;55.96
75936;BME280;64614;32.062;34.834;2023-07-22T10:05:22;100453.25;;;28.69;56.30
75936;BME280;64614;32.062;34.834;2023-07-22T10:07:51;100445.44;;;28.71;56.46
75936;BME280;64614;32.062;34.834;2023-07-22T10:10:19;100456.13;;;28.72;55.85
75936;BME280;64614;32.062;34.834;2023-07-22T10:12:46;100443.13;;;28.73;56.03
75936;BME280;64614;32.062;34.834;2023-07-22T10:15:13;100439.56;;;28.72;56.20
75936;BME280;64614;32.062;34.834;2023-07-22T10:17:43;100435.72;;;28.77;56.40
75936;BME280;64614;32.062;34.834;2023-07-22T10:20:11;100446.75;;;28.77;56.04
75936;BME280;64614;32.062;34.834;2023-07-22T10:22:44;100436.94;;;28.80;56.01
75936;BME280;64614;32.062;34.834;2023-07-22T10:25:18;100434.63;;;28.82;56.21
75936;BME280;64614;32.062;34.834;2023-07-22T10:27:44;100423.56;;;28.82;56.34
75936;BME280;64614;32.062;34.834;2023-07-22T10:30:12;100423.22;;;28.83;56.18
75936;BME280;64614;32.062;34.834;2023-07-22T10:32:52;100424.81;;;28.84;56.38
75936;BME280;64614;32.062;34.834;2023-07-22T10:38:09;100424.88;;;28.88;55.93
75936;BME280;64614;32.062;34.834;2023-07-22T10:40:50;100423.72;;;28.89;56.02
75936;BME280;64614;32.062;34.834;2023-07-22T10:43:17;100422.56;;;28.90;56.11
75936;BME280;64614;32.062;34.834;2023-07-22T10:45:51;100415.09;;;28.90;56.14
75936;BME280;64614;32.062;34.834;2023-07-22T10:48:18;100427.38;;;28.93;55.96
75936;BME280;64614;32.062;34.834;2023-07-22T11:11:54;100414.16;;;29.02;56.19
75936;BME280;64614;32.062;34.834;2023-07-22T11:14:23;100420.47;;;29.03;56.05
75936;BME280;64614;32.062;34.834;2023-07-22T11:16:50;100427.59;;;29.04;56.23
75936;BME280;64614;32.062;34.834;2023-07-22T11:19:17;100422.09;;;29.04;56.34
75936;BME280;64614;32.062;34.834;2023-07-22T11:21:44;100424.47;;;29.05;56.04
75936;BME280;64614;32.062;34.834;2023-07-22T11:24:10;100417.78;;;29.06;56.35
75936;BME280;64614;32.062;34.834;2023-07-22T11:26:37;100415.03;;;29.06;56.08
75936;BME280;64614;32.062;34.834;2023-07-22T11:29:04;100412.69;;;29.08;56.49
75936;BME280;64614;32.062;34.834;2023-07-22T11:31:31;100425.38;;;29.10;56.40
75936;BME280;64614;32.062;34.834;2023-07-22T11:33:57;100419.47;;;29.11;56.19
75936;BME280;64614;32.062;34.834;2023-07-22T11:36:23;100416.69;;;29.11;56.48
75936;BME280;64614;32.062;34.834;2023-07-22T11:38:48;100416.69;;;29.11;56.34
75936;BME280;64614;32.062;34.834;2023-07-22T11:41:14;100405.28;;;29.13;56.13
75936;BME280;64614;32.062;34.834;2023-07-22T11:43:40;100415.09;;;29.10;56.12
75936;BME280;64614;32.062;34.834;2023-07-22T11:46:06;100410.66;;;29.05;55.06
75936;BME280;64614;32.062;34.834;2023-07-22T11:48:32;100410.81;;;28.93;54.76
75936;BME280;64614;32.062;34.834;2023-07-22T11:51:01;100413.69;;;28.81;54.57
75936;BME280;64614;32.062;34.834;2023-07-22T11:53:27;100407.00;;;28.66;55.00
75936;BME280;64614;32.062;34.834;2023-07-22T11:55:55;100410.41;;;28.59;54.72
75936;BME280;64614;32.062;34.834;2023-07-22T11:58:28;100411.41;;;28.51;54.60
75936;BME280;64614;32.062;34.834;2023-07-22T12:01:06;100417.81;;;28.39;54.37
75936;BME280;64614;32.062;34.834;2023-07-22T12:03:33;100409.03;;;28.33;54.38
75936;BME280;64614;32.062;34.834;2023-07-22T12:06:03;100412.78;;;28.25;54.51
75936;BME280;64614;32.062;34.834;2023-07-22T12:08:29;100418.47;;;28.16;54.43
75936;BME280;64614;32.062;34.834;2023-07-22T12:10:58;100408.50;;;28.11;54.72
75936;BME280;64614;32.062;34.834;2023-07-22T12:13:24;100412.66;;;28.05;54.46
75936;BME280;64614;32.062;34.834;2023-07-22T12:16:04;100411.66;;;27.97;54.23
75936;BME280;64614;32.062;34.834;2023-07-22T12:18:46;100406.88;;;27.94;54.27
75936;BME280;64614;32.062;34.834;2023-07-22T12:21:13;100406.31;;;27.89;54.34
75936;BME280;64614;32.062;34.834;2023-07-22T12:23:40;100401.06;;;27.83;54.38
75936;BME280;64614;32.062;34.834;2023-07-22T12:26:06;100405.31;;;27.81;54.55
75936;BME280;64614;32.062;34.834;2023-07-22T12:28:33;100405.59;;;27.76;54.21
75936;BME280;64614;32.062;34.834;2023-07-22T12:30:58;100405.50;;;27.72;54.74
75936;BME280;64614;32.062;34.834;2023-07-22T12:33:25;100396.78;;;27.70;54.52
75936;BME280;64614;32.062;34.834;2023-07-22T12:35:53;100405.66;;;27.63;54.84
75936;BME280;64614;32.062;34.834;2023-07-22T12:38:18;100408.41;;;27.63;54.52
75936;BME280;64614;32.062;34.834;2023-07-22T12:40:44;100407.16;;;27.61;55.15
75936;BME280;64614;32.062;34.834;2023-07-22T12:43:10;100403.25;;;27.62;54.83
75936;BME280;64614;32.062;34.834;2023-07-22T12:45:35;100400.50;;;27.62;54.68
75936;BME280;64614;32.062;34.834;2023-07-22T12:48:01;100397.00;;;27.65;54.82
75936;BME280;64614;32.062;34.834;2023-07-22T12:50:28;100399.06;;;27.68;54.91
75936;BME280;64614;32.062;34.834;2023-07-22T12:52:54;100402.28;;;27.70;55.01
75936;BME280;64614;32.062;34.834;2023-07-22T12:55:20;100393.28;;;27.73;55.18
75936;BME280;64614;32.062;34.834;2023-07-22T12:57:46;100395.34;;;27.76;55.39
75936;BME280;64614;32.062;34.834;2023-07-22T13:00:12;100389.13;;;27.79;55.07
75936;BME280;64614;32.062;34.834;2023-07-22T13:02:38;100381.28;;;27.81;55.14
75936;BME280;64614;32.062;34.834;2023-07-22T13:05:04;100386.91;;;27.85;55.18